Time;durP1;ratioP1;P1;durP2;ratioP2;P2;SDS_P1;SDS_P2;PMS_P1;PMS_P2;Temp;Humidity;BMP_temperature;BMP_pressure;BME280_temperature;BME280_humidity;BME280_pressure;Samples;Min_cycle;Max_cycle;Signal;HPM_P1;HPM_P2
2023/09/08 00:00:31;;;;;;;;;23.25;21.25;;;;;27.59;48.80;101151.56;5078500;27;45395;-47
2023/09/08 00:02:56;;;;;;;;;28.00;25.75;;;;;27.55;48.64;101155.03;5078806;27;45390;-45
2023/09/08 00:05:21;;;;;;;;;29.25;27.50;;;;;27.55;48.43;101155.84;5078073;27;45331;-46
2023/09/08 00:07:47;;;;;;;;;28.25;24.75;;;;;27.54;48.84;101159.69;5076726;27;45562;-47
2023/09/08 00:10:12;;;;;;;;;30.25;27.50;;;;;27.50;48.82;101158.53;5078175;27;45776;-47
2023/09/08 00:12:38;;;;;;;;;26.25;25.25;;;;;27.25;48.27;101119.88;5078750;27;45407;-45
2023/09/08 00:15:04;;;;;;;;;28.25;24.50;;;;;27.47;48.42;101158.19;5078463;27;45884;-47
2023/09/08 00:17:29;;;;;;;;;29.75;26.75;;;;;27.46;48.46;101170.19;5078325;27;45722;-47
2023/09/08 00:19:56;;;;;;;;;28.50;23.00;;;;;27.45;48.76;101161.19;5077999;27;45375;-50
2023/09/08 00:22:22;;;;;;;;;27.00;24.75;;;;;27.45;49.02;101172.09;5078387;27;45359;-46
2023/09/08 00:24:47;;;;;;;;;27.00;25.75;;;;;27.42;49.16;101164.41;5059878;27;45533;-48
2023/09/08 00:27:13;;;;;;;;;26.60;24.40;;;;;27.32;49.33;101154.16;5078059;27;45771;-46
2023/09/08 00:29:39;;;;;;;;;30.25;26.75;;;;;27.36;48.80;101159.94;5078092;27;45951;-49
2023/09/08 00:32:04;;;;;;;;;26.75;24.00;;;;;27.29;48.86;101154.63;5078467;28;45449;-47
2023/09/08 00:34:29;;;;;;;;;33.25;26.50;;;;;27.28;49.40;101160.34;5078129;27;45379;-49
2023/09/08 00:36:55;;;;;;;;;32.25;27.75;;;;;27.27;49.57;101164.16;5077983;27;45311;-47
2023/09/08 00:39:20;;;;;;;;;28.25;26.25;;;;;27.25;49.27;101160.84;5078049;28;45452;-47
2023/09/08 00:41:46;;;;;;;;;28.50;25.00;;;;;27.20;49.24;101158.03;5077033;27;45315;-45
2023/09/08 00:44:11;;;;;;;;;29.75;24.50;;;;;27.15;49.31;101157.94;5077809;28;45394;-48
2023/09/08 00:46:37;;;;;;;;;32.75;28.75;;;;;27.15;49.61;101164.22;5077703;27;45409;-50
2023/09/08 00:49:02;;;;;;;;;26.75;24.75;;;;;27.11;49.73;101169.34;5059636;27;45296;-50
2023/09/08 00:51:28;;;;;;;;;28.25;24.50;;;;;27.11;49.44;101163.06;5077970;27;45569;-49
2023/09/08 00:53:53;;;;;;;;;28.75;26.25;;;;;27.05;49.70;101155.81;5077591;28;45414;-47
2023/09/08 00:56:19;;;;;;;;;26.00;24.25;;;;;27.06;49.12;101165.69;5077640;27;45288;-46
2023/09/08 00:58:44;;;;;;;;;25.75;23.25;;;;;26.97;49.24;101151.59;5076813;27;45541;-46
2023/09/08 01:01:10;;;;;;;;;28.25;27.00;;;;;26.91;49.44;101155.31;5077463;28;45534;-47
2023/09/08 01:03:35;;;;;;;;;27.00;24.00;;;;;26.88;49.85;101161.25;5077649;27;46108;-47
2023/09/08 01:06:01;;;;;;;;;28.25;25.50;;;;;26.88;49.93;101166.69;5077467;27;45493;-47
2023/09/08 01:08:27;;;;;;;;;28.25;24.75;;;;;26.84;49.90;101157.34;5077732;28;45354;-47
2023/09/08 01:10:53;;;;;;;;;33.00;25.50;;;;;26.81;49.24;101161.41;5077666;28;45689;-46
2023/09/08 01:13:18;;;;;;;;;25.00;23.75;;;;;26.75;49.52;101158.81;5077005;28;46460;-47
2023/09/08 01:15:43;;;;;;;;;30.00;26.75;;;;;26.66;50.38;101143.91;5076234;27;45412;-49
2023/09/08 01:18:09;;;;;;;;;31.75;26.75;;;;;26.72;49.14;101159.31;5077304;27;45323;-47
2023/09/08 01:20:40;;;;;;;;;27.75;23.50;;;;;26.68;50.04;101171.81;5076119;27;45423;-49
2023/09/08 01:23:21;;;;;;;;;33.75;28.75;;;;;26.66;50.16;101157.56;5077138;27;45552;-47
2023/09/08 01:26:08;;;;;;;;;22.40;22.40;;;;;26.65;50.35;101161.38;5077023;28;45453;-46
2023/09/08 01:28:34;;;;;;;;;27.50;26.50;;;;;26.55;50.44;101154.63;5077270;28;45315;-50
2023/09/08 01:31:00;;;;;;;;;27.00;27.00;;;;;26.51;50.90;101158.94;5077636;27;45185;-48
2023/09/08 01:33:26;;;;;;;;;25.75;25.75;;;;;26.42;50.80;101154.91;5077123;27;46161;-46
2023/09/08 01:35:52;;;;;;;;;28.25;26.50;;;;;26.46;50.87;101155.25;5058782;27;45383;-48
2023/09/08 01:38:18;;;;;;;;;24.40;22.00;;;;;26.46;51.31;101166.16;5077154;28;45428;-49
2023/09/08 01:40:43;;;;;;;;;28.50;26.25;;;;;26.45;51.63;101162.59;5077214;28;45392;-46
2023/09/08 01:43:08;;;;;;;;;24.00;24.00;;;;;26.32;50.85;101150.03;5058490;28;46613;-49
2023/09/08 01:45:33;;;;;;;;;27.25;24.75;;;;;26.37;51.01;101163.78;5058665;28;45410;-48
2023/09/08 01:47:59;;;;;;;;;27.00;22.50;;;;;26.30;51.94;101154.91;5077060;27;45977;-49
2023/09/08 01:50:24;;;;;;;;;29.50;23.75;;;;;26.31;51.25;101156.56;5056264;27;46144;-49
2023/09/08 01:52:50;;;;;;;;;38.25;27.25;;;;;26.30;51.32;101165.00;5056239;28;49106;-47
2023/09/08 01:55:20;;;;;;;;;28.50;26.50;;;;;26.26;52.05;101166.56;5056121;28;45427;-48
2023/09/08 01:57:46;;;;;;;;;28.50;23.50;;;;;26.21;51.63;101164.56;5056598;28;45679;-47
2023/09/08 02:00:12;;;;;;;;;31.00;27.75;;;;;26.18;52.13;101167.75;5056654;28;45577;-48
2023/09/08 02:02:37;;;;;;;;;29.50;28.25;;;;;26.12;52.93;101166.81;5056410;28;45372;-47
2023/09/08 02:05:03;;;;;;;;;26.75;23.25;;;;;26.09;52.56;101166.47;5056375;28;45402;-45
2023/09/08 02:07:28;;;;;;;;;28.25;24.25;;;;;26.07;52.75;101171.31;5056295;28;45428;-48
2023/09/08 02:09:54;;;;;;;;;30.25;25.00;;;;;26.01;53.05;101159.47;5056524;28;45336;-47
2023/09/08 02:12:19;;;;;;;;;27.50;23.50;;;;;26.02;52.71;101163.84;5055984;28;46413;-48
2023/09/08 02:14:44;;;;;;;;;30.00;28.00;;;;;26.04;52.39;101169.91;5057984;28;47241;-47
2023/09/08 02:17:10;;;;;;;;;23.75;21.50;;;;;26.01;53.06;101164.94;5076554;28;45366;-47
2023/09/08 02:19:35;;;;;;;;;27.75;25.75;;;;;25.95;53.40;101163.13;5076495;27;45451;-45
2023/09/08 02:22:00;;;;;;;;;24.75;24.75;;;;;25.95;53.42;101168.59;5076233;27;46014;-47
2023/09/08 02:24:26;;;;;;;;;28.50;22.75;;;;;25.91;53.74;101167.41;5076028;28;45386;-45
2023/09/08 02:26:51;;;;;;;;;32.50;24.50;;;;;25.92;53.17;101177.28;5076369;28;45446;-48
2023/09/08 02:29:17;;;;;;;;;24.00;22.50;;;;;25.86;53.17;101176.31;5058673;28;45411;-48
2023/09/08 02:31:43;;;;;;;;;24.75;20.25;;;;;25.84;52.61;101177.63;5075825;27;45442;-47
2023/09/08 02:34:08;;;;;;;;;30.50;24.00;;;;;25.82;53.19;101183.28;5076132;28;45319;-46
2023/09/08 02:36:33;;;;;;;;;25.50;21.50;;;;;25.83;53.25;101186.84;5076299;27;45828;-47
2023/09/08 02:38:59;;;;;;;;;23.25;22.25;;;;;25.83;52.98;101184.13;5076503;28;45509;-46
2023/09/08 02:41:24;;;;;;;;;23.75;22.75;;;;;25.81;53.07;101183.53;5075892;27;45450;-43
2023/09/08 02:43:50;;;;;;;;;23.00;18.75;;;;;25.74;53.19;101177.34;5075899;28;45431;-46
2023/09/08 02:46:15;;;;;;;;;22.75;21.00;;;;;25.78;53.22;101187.56;5076094;28;45374;-47
2023/09/08 02:48:41;;;;;;;;;25.75;24.25;;;;;25.75;53.71;101195.38;5067862;27;45517;-47
2023/09/08 02:51:06;;;;;;;;;24.75;22.25;;;;;25.73;53.02;101186.59;5055757;28;45353;-46
2023/09/08 02:53:32;;;;;;;;;29.75;24.00;;;;;25.64;52.97;101184.22;5055580;28;45323;-46
2023/09/08 02:55:58;;;;;;;;;30.25;24.00;;;;;25.66;53.56;101186.69;5055936;28;45328;-46
2023/09/08 02:58:24;;;;;;;;;29.75;22.25;;;;;25.62;53.34;101180.09;5055776;28;45747;-45
2023/09/08 03:00:51;;;;;;;;;29.00;25.50;;;;;25.58;53.21;101187.06;5055346;28;47414;-44
2023/09/08 03:03:17;;;;;;;;;30.50;27.00;;;;;25.53;54.20;101182.28;5055510;28;45426;-45
2023/09/08 03:05:43;;;;;;;;;30.25;24.75;;;;;25.44;53.82;101183.72;5055090;28;45377;-44
2023/09/08 03:08:08;;;;;;;;;28.75;23.25;;;;;25.45;54.14;101190.84;5055689;28;45374;-45
2023/09/08 03:10:36;;;;;;;;;32.50;27.75;;;;;25.42;54.93;101190.47;5055615;28;45590;-46
2023/09/08 03:13:02;;;;;;;;;27.25;24.75;;;;;25.46;54.35;101189.78;5055634;28;45216;-49
2023/09/08 03:15:28;;;;;;;;;25.25;23.25;;;;;25.42;53.95;101188.56;5055545;28;45376;-45
2023/09/08 03:18:00;;;;;;;;;26.25;23.25;;;;;25.38;55.01;101185.50;5055726;28;45430;-46
2023/09/08 03:20:28;;;;;;;;;29.00;25.25;;;;;25.36;54.33;101178.59;5054806;28;46139;-45
2023/09/08 03:22:54;;;;;;;;;32.67;29.67;;;;;25.32;55.00;101175.50;5055427;28;45414;-47
2023/09/08 03:25:20;;;;;;;;;52.67;41.67;;;;;25.25;54.60;101174.81;5074045;27;45298;-47
2023/09/08 03:27:45;;;;;;;;;59.33;44.67;;;;;25.31;54.88;101183.94;5075622;27;45394;-47
2023/09/08 03:30:11;;;;;;;;;51.00;40.33;;;;;25.29;54.78;101177.91;5075419;28;46103;-47
2023/09/08 03:32:37;;;;;;;;;28.75;22.75;;;;;25.16;55.00;101159.88;5075365;27;45830;-46
2023/09/08 03:35:04;;;;;;;;;31.25;25.25;;;;;25.23;55.14;101179.63;5075563;28;45354;-48
2023/09/08 03:37:29;;;;;;;;;26.50;24.25;;;;;25.18;55.56;101175.97;5075182;28;45232;-46
2023/09/08 03:39:54;;;;;;;;;27.50;24.50;;;;;25.15;56.12;101174.53;5075291;27;45435;-45
2023/09/08 03:42:20;;;;;;;;;25.00;22.25;;;;;25.11;55.43;101176.06;5075387;28;45335;-44
2023/09/08 03:44:45;;;;;;;;;26.75;24.00;;;;;25.05;56.00;101166.91;5077962;27;45728;-49
2023/09/08 03:47:10;;;;;;;;;24.00;23.25;;;;;25.07;55.88;101178.41;5078983;27;45493;-49
2023/09/08 03:49:36;;;;;;;;;27.50;23.25;;;;;25.07;55.09;101180.28;5078647;28;46458;-47
2023/09/08 03:52:01;;;;;;;;;22.75;21.25;;;;;24.97;55.20;101172.69;5060344;28;45768;-48
2023/09/08 03:54:27;;;;;;;;;23.50;20.25;;;;;25.01;55.29;101182.03;5078701;27;45407;-48
2023/09/08 03:56:52;;;;;;;;;23.25;21.75;;;;;24.97;55.14;101172.69;5078827;27;45249;-49
2023/09/08 03:59:17;;;;;;;;;26.00;23.25;;;;;24.98;55.69;101176.22;5077329;27;46427;-49
2023/09/08 04:01:43;;;;;;;;;24.25;22.00;;;;;24.93;55.97;101167.94;5078228;27;45338;-45
2023/09/08 04:04:08;;;;;;;;;27.25;21.75;;;;;24.95;55.93;101172.09;5078542;28;45255;-46
2023/09/08 04:06:33;;;;;;;;;24.00;22.75;;;;;24.93;56.03;101170.66;5078452;27;45459;-46
2023/09/08 04:08:59;;;;;;;;;26.25;22.75;;;;;24.90;55.72;101174.66;5078328;27;45855;-47
2023/09/08 04:11:25;;;;;;;;;30.75;24.25;;;;;24.86;55.75;101166.16;5078402;28;45341;-47
2023/09/08 04:13:51;;;;;;;;;29.50;24.00;;;;;24.83;56.14;101166.59;5078417;28;45414;-49
2023/09/08 04:16:16;;;;;;;;;27.75;25.00;;;;;24.86;57.15;101178.91;5078304;28;45588;-46
2023/09/08 04:18:41;;;;;;;;;24.25;23.25;;;;;24.76;56.84;101160.41;5078223;27;45406;-47
2023/09/08 04:21:09;;;;;;;;;21.50;19.50;;;;;24.82;57.12;101173.13;5078033;27;45406;-47
2023/09/08 04:23:35;;;;;;;;;25.00;23.00;;;;;24.80;56.51;101166.22;5078293;27;45327;-46
2023/09/08 04:26:00;;;;;;;;;28.00;24.75;;;;;24.80;56.51;101174.38;5077544;27;45266;-45
2023/09/08 04:28:26;;;;;;;;;25.00;22.75;;;;;24.78;57.17;101171.09;5077795;27;46943;-49
2023/09/08 04:30:51;;;;;;;;;31.75;26.75;;;;;24.77;56.95;101169.41;5077892;28;45323;-45
2023/09/08 04:33:16;;;;;;;;;27.50;24.50;;;;;24.76;57.27;101176.72;5078165;27;45244;-46
2023/09/08 04:35:43;;;;;;;;;30.25;23.25;;;;;24.77;57.70;101177.56;5060080;28;45333;-44
2023/09/08 04:38:08;;;;;;;;;29.75;26.50;;;;;24.78;57.70;101179.25;5077792;28;45431;-45
2023/09/08 04:40:34;;;;;;;;;30.00;23.50;;;;;24.77;58.01;101172.13;5077693;27;45605;-47
2023/09/08 04:42:59;;;;;;;;;25.00;25.00;;;;;24.79;57.73;101175.47;5078106;27;45385;-45
2023/09/08 04:45:25;;;;;;;;;26.00;23.00;;;;;24.77;57.71;101181.09;5078141;27;45450;-48
2023/09/08 04:47:50;;;;;;;;;28.50;26.50;;;;;24.73;58.06;101179.91;5077774;28;45440;-48
2023/09/08 04:50:16;;;;;;;;;26.75;23.25;;;;;24.73;57.71;101181.81;5077562;27;45316;-49
2023/09/08 04:52:41;;;;;;;;;31.75;24.75;;;;;24.70;58.35;101176.84;5077524;28;45390;-48
2023/09/08 04:55:07;;;;;;;;;32.25;26.50;;;;;24.70;58.82;101168.69;5077935;28;45406;-46
2023/09/08 04:57:32;;;;;;;;;29.25;25.25;;;;;24.70;58.66;101177.66;5077501;27;45419;-49
2023/09/08 04:59:57;;;;;;;;;25.25;23.75;;;;;24.70;58.81;101183.13;5077648;28;45426;-45
2023/09/08 05:02:23;;;;;;;;;23.00;21.00;;;;;24.64;57.97;101173.13;5060937;27;45396;-48
2023/09/08 05:04:48;;;;;;;;;25.25;23.25;;;;;24.67;58.74;101178.13;5057363;28;45384;-48
2023/09/08 05:07:13;;;;;;;;;30.25;24.75;;;;;24.64;58.74;101182.13;5056821;28;46451;-47
2023/09/08 05:09:39;;;;;;;;;28.75;25.00;;;;;24.69;58.48;101178.72;5039032;28;45419;-44
2023/09/08 05:12:05;;;;;;;;;26.00;22.00;;;;;24.70;58.24;101183.13;5057233;28;45350;-51
2023/09/08 05:14:31;;;;;;;;;28.25;26.00;;;;;24.75;58.55;101180.53;5057377;28;45423;-45
2023/09/08 05:16:56;;;;;;;;;28.25;23.25;;;;;24.75;57.96;101174.25;5057583;27;45790;-50
2023/09/08 05:19:22;;;;;;;;;27.50;25.75;;;;;24.74;57.90;101178.88;5076770;28;45417;-51
2023/09/08 05:21:54;;;;;;;;;26.75;24.00;;;;;24.67;57.69;101175.41;5077194;28;45454;-49
2023/09/08 05:24:20;;;;;;;;;29.00;25.75;;;;;24.71;57.55;101186.66;5077248;27;45411;-53
2023/09/08 05:26:46;;;;;;;;;24.00;23.25;;;;;24.70;58.30;101190.44;5077133;27;46189;-52
2023/09/08 05:29:11;;;;;;;;;27.25;22.75;;;;;24.62;57.96;101183.44;5077148;28;45379;-49
2023/09/08 05:31:37;;;;;;;;;28.00;22.50;;;;;24.67;58.12;101190.91;5076981;27;45306;-46
2023/09/08 05:34:03;;;;;;;;;25.25;22.00;;;;;24.68;57.93;101201.53;5077539;28;45323;-51
2023/09/08 05:36:29;;;;;;;;;28.75;25.75;;;;;24.60;58.52;101180.09;5075499;27;46579;-47
2023/09/08 05:38:55;;;;;;;;;31.00;22.75;;;;;24.62;58.14;101186.97;5076707;27;45371;-46
2023/09/08 05:41:20;;;;;;;;;24.25;23.75;;;;;24.64;58.04;101195.72;5058838;27;45506;-48
2023/09/08 05:43:46;;;;;;;;;24.50;24.00;;;;;24.64;57.84;101187.56;5079283;27;45413;-44
2023/09/08 05:46:12;;;;;;;;;22.25;20.75;;;;;24.68;58.05;101192.56;5077701;27;45392;-44
2023/09/08 05:48:38;;;;;;;;;23.50;21.50;;;;;24.71;57.86;101194.81;5076695;27;45435;-46
2023/09/08 05:51:04;;;;;;;;;30.25;20.25;;;;;24.64;57.55;101178.56;5076919;27;45414;-47
2023/09/08 05:53:30;;;;;;;;;23.00;20.50;;;;;24.72;57.10;101201.91;5076669;27;45537;-44
2023/09/08 05:55:55;;;;;;;;;24.25;22.25;;;;;24.69;57.38;101196.94;5075492;27;45437;-49
2023/09/08 05:58:20;;;;;;;;;24.25;24.25;;;;;24.72;57.24;101196.47;5076597;27;45202;-44
2023/09/08 06:00:46;;;;;;;;;27.75;22.50;;;;;24.71;57.05;101197.53;5058372;28;45450;-48
2023/09/08 06:03:11;;;;;;;;;24.75;22.00;;;;;24.74;57.08;101199.81;5076955;27;45333;-49
2023/09/08 06:05:36;;;;;;;;;23.50;23.50;;;;;24.77;56.94;101196.59;5076201;27;45695;-49
2023/09/08 06:08:02;;;;;;;;;25.00;24.50;;;;;24.80;57.38;101207.03;5076154;27;45169;-48
2023/09/08 06:10:27;;;;;;;;;73.67;50.00;;;;;24.76;56.80;101197.69;5076394;28;45371;-48
2023/09/08 06:12:52;;;;;;;;;36.00;32.00;;;;;24.85;57.34;101202.56;5076813;27;45467;-51
2023/09/08 06:15:18;;;;;;;;;30.00;23.75;;;;;24.83;56.64;101187.53;5076290;28;46585;-50
2023/09/08 06:17:43;;;;;;;;;26.00;24.25;;;;;24.94;56.56;101200.34;5076307;28;45275;-51
2023/09/08 06:20:09;;;;;;;;;25.00;23.25;;;;;24.94;56.71;101200.34;5076206;28;45512;-49
2023/09/08 06:22:34;;;;;;;;;31.00;25.00;;;;;24.92;56.62;101194.31;5076517;27;45324;-51
2023/09/08 06:25:00;;;;;;;;;25.00;21.75;;;;;24.97;56.84;101202.63;5076205;27;46125;-51
2023/09/08 06:27:25;;;;;;;;;25.50;22.25;;;;;24.97;56.15;101204.50;5076185;27;45507;-42
2023/09/08 06:29:51;;;;;;;;;33.00;23.75;;;;;24.93;56.57;101200.59;5076340;28;45241;-45
2023/09/08 06:32:16;;;;;;;;;26.25;22.25;;;;;25.01;56.54;101211.16;5076137;27;45386;-53
2023/09/08 06:34:42;;;;;;;;;25.25;23.25;;;;;25.04;55.68;101202.53;5075877;27;46067;-45
2023/09/08 06:37:08;;;;;;;;;22.50;21.50;;;;;24.99;56.14;101191.50;5076214;27;45361;-44
2023/09/08 06:39:33;;;;;;;;;23.00;22.00;;;;;25.03;55.75;101198.13;5057976;28;45311;-46
2023/09/08 06:41:59;;;;;;;;;29.00;24.50;;;;;25.13;55.95;101212.06;5076309;27;45363;-41
2023/09/08 06:44:24;;;;;;;;;25.50;23.75;;;;;25.24;55.19;101213.16;5076013;28;46042;-40
2023/09/08 06:46:49;;;;;;;;;28.00;22.50;;;;;25.27;54.85;101209.97;5075240;28;45429;-47
2023/09/08 06:49:15;;;;;;;;;28.00;23.00;;;;;25.33;54.87;101206.31;5076107;28;45280;-40
2023/09/08 06:51:40;;;;;;;;;25.50;22.50;;;;;25.38;54.16;101209.16;5076284;28;45558;-47
2023/09/08 06:54:06;;;;;;;;;23.25;21.75;;;;;25.41;54.15;101214.16;5075811;28;45391;-45
2023/09/08 06:56:31;;;;;;;;;24.00;21.00;;;;;25.41;54.40;101210.59;5075622;28;45365;-39
2023/09/08 06:58:57;;;;;;;;;25.00;20.25;;;;;25.49;53.93;101219.25;5076186;28;45449;-49
2023/09/08 07:01:23;;;;;;;;;21.25;18.25;;;;;25.57;53.81;101215.34;5075938;28;45205;-39
2023/09/08 07:03:49;;;;;;;;;23.00;20.00;;;;;25.72;52.83;101213.00;5075699;28;46370;-39
2023/09/08 07:06:15;;;;;;;;;20.75;18.25;;;;;25.83;52.92;101217.69;5075425;28;45442;-42
2023/09/08 07:08:40;;;;;;;;;20.75;19.25;;;;;26.00;52.55;101220.53;5075784;28;45377;-40
2023/09/08 07:11:05;;;;;;;;;23.50;17.50;;;;;26.34;52.11;101218.81;5076010;28;45867;-40
2023/09/08 07:13:31;;;;;;;;;20.75;18.75;;;;;27.16;49.95;101203.28;5075287;28;50454;-39
2023/09/08 07:15:56;;;;;;;;;21.25;18.75;;;;;28.15;48.14;101214.50;5075559;28;45489;-41
2023/09/08 07:18:21;;;;;;;;;23.50;20.50;;;;;28.80;47.23;101210.94;5076205;28;45744;-40
2023/09/08 07:20:50;;;;;;;;;19.75;18.25;;;;;29.27;45.34;101210.34;5075109;28;45429;-40
2023/09/08 07:23:19;;;;;;;;;20.40;19.40;;;;;29.72;45.53;101206.38;5075068;28;45480;-40
2023/09/08 07:25:48;;;;;;;;;16.80;16.80;;;;;30.27;44.04;101202.34;5076365;27;45396;-41
2023/09/08 07:28:14;;;;;;;;;21.00;18.60;;;;;30.86;42.88;101212.19;5076740;27;45489;-41
2023/09/08 07:30:39;;;;;;;;;22.40;17.60;;;;;31.62;41.41;101216.16;5079181;27;45369;-41
2023/09/08 07:33:05;;;;;;;;;22.00;18.25;;;;;32.54;40.20;101206.59;5078742;28;46041;-41
2023/09/08 07:35:31;;;;;;;;;21.00;19.20;;;;;33.68;38.19;101202.81;5078279;28;45331;-41
2023/09/08 07:37:56;;;;;;;;;19.00;18.00;;;;;34.65;35.84;101203.69;5078309;28;45450;-41
2023/09/08 07:40:22;;;;;;;;;21.50;19.50;;;;;35.44;35.09;101213.00;5078557;28;45743;-40
2023/09/08 07:42:47;;;;;;;;;19.75;17.75;;;;;36.13;33.66;101209.59;5078389;28;46082;-40
2023/09/08 07:45:12;;;;;;;;;23.00;17.50;;;;;36.68;32.63;101201.25;5078501;28;45448;-40
2023/09/08 07:47:38;;;;;;;;;20.75;17.50;;;;;37.22;31.20;101205.00;5078610;28;45370;-42
2023/09/08 07:50:16;;;;;;;;;16.75;16.50;;;;;37.16;32.21;101214.56;5059945;28;45569;-41
2023/09/08 07:52:42;;;;;;;;;20.20;17.80;;;;;37.30;31.15;101215.34;5078239;28;45763;-41
2023/09/08 07:55:07;;;;;;;;;16.75;14.75;;;;;38.11;29.80;101211.56;5078084;28;45446;-42
2023/09/08 07:57:33;;;;;;;;;17.50;14.50;;;;;38.80;29.18;101213.72;5094130;27;45424;-42
2023/09/08 07:59:58;;;;;;;;;23.25;17.25;;;;;39.40;27.57;101207.31;5094350;27;45609;-42
2023/09/08 08:02:23;;;;;;;;;20.25;18.25;;;;;39.91;27.48;101219.50;5077557;28;45381;-41
2023/09/08 08:04:48;;;;;;;;;20.25;16.00;;;;;40.59;26.74;101213.94;5078224;28;45451;-40
2023/09/08 08:07:14;;;;;;;;;18.00;15.50;;;;;41.18;25.74;101216.59;5078095;28;45386;-40
2023/09/08 08:09:39;;;;;;;;;17.50;15.75;;;;;41.59;25.45;101209.28;5077829;28;45605;-40
2023/09/08 08:12:05;;;;;;;;;16.00;14.75;;;;;42.05;24.29;101210.06;5077995;28;46076;-41
2023/09/08 08:14:30;;;;;;;;;15.00;13.25;;;;;42.50;24.04;101212.72;5077758;28;45518;-44
2023/09/08 08:16:56;;;;;;;;;18.25;16.00;;;;;42.95;23.27;101213.69;5078344;28;45322;-40
2023/09/08 08:19:21;;;;;;;;;19.50;15.25;;;;;43.12;23.23;101219.03;5077912;28;45461;-51
2023/09/08 08:21:46;;;;;;;;;14.00;14.00;;;;;43.39;22.95;101224.94;5077816;28;47446;-41
2023/09/08 08:24:12;;;;;;;;;15.50;15.00;;;;;43.31;23.06;101224.75;5077862;28;45307;-43
2023/09/08 08:26:37;;;;;;;;;14.50;12.00;;;;;43.27;22.85;101221.03;5077883;28;45497;-40
2023/09/08 08:29:03;;;;;;;;;11.75;10.50;;;;;42.58;23.61;101220.19;5077909;28;45412;-50
2023/09/08 08:31:28;;;;;;;;;17.75;15.50;;;;;42.33;24.35;101230.59;5077540;28;45618;-40
2023/09/08 08:33:54;;;;;;;;;17.75;15.00;;;;;42.68;23.81;101238.47;5077679;28;45361;-48
2023/09/08 08:36:19;;;;;;;;;13.50;10.50;;;;;42.60;23.39;101225.41;5077614;28;45433;-61
2023/09/08 08:38:44;;;;;;;;;16.00;14.00;;;;;42.36;23.59;101204.72;5059242;28;45376;-51
2023/09/08 08:41:10;;;;;;;;;16.25;14.00;;;;;42.44;23.95;101230.13;5077579;28;45474;-39
2023/09/08 08:43:37;;;;;;;;;18.40;14.00;;;;;42.40;23.42;101232.00;5077719;28;45393;-40
2023/09/08 08:46:04;;;;;;;;;15.80;13.60;;;;;42.12;24.61;101225.09;5077736;28;45425;-40
2023/09/08 08:48:30;;;;;;;;;15.00;12.40;;;;;42.11;24.00;101239.44;5077654;28;45470;-41
2023/09/08 08:50:57;;;;;;;;;18.40;15.00;;;;;41.97;24.89;101216.56;5077350;28;46636;-40
2023/09/08 08:53:23;;;;;;;;;13.00;13.00;;;;;42.16;24.12;101230.81;5077246;28;45331;-42
2023/09/08 08:55:53;;;;;;;;;13.40;13.00;;;;;42.38;23.75;101232.31;5077684;28;45433;-44
2023/09/08 08:58:24;;;;;;;;;15.60;15.40;;;;;42.76;23.83;101245.91;5077462;28;45477;-45
2023/09/08 09:00:52;;;;;;;;;15.80;15.40;;;;;43.07;23.67;101245.28;5056614;27;46944;-42
2023/09/08 09:03:18;;;;;;;;;14.40;13.00;;;;;43.26;22.76;101243.81;5076355;27;45508;-39
2023/09/08 09:05:44;;;;;;;;;18.00;13.25;;;;;43.58;23.12;101247.53;5093147;27;45383;-40
2023/09/08 09:08:11;;;;;;;;;14.40;14.40;;;;;43.85;22.71;101242.22;5077657;28;45363;-40
2023/09/08 09:10:37;;;;;;;;;9.80;8.60;;;;;44.38;21.11;101248.38;5076805;28;46197;-41
2023/09/08 09:13:02;;;;;;;;;14.50;13.00;;;;;45.48;20.73;101245.16;5077380;28;45384;-39
2023/09/08 09:15:29;;;;;;;;;13.50;13.50;;;;;47.29;19.67;101251.13;5077403;28;45327;-40
2023/09/08 09:18:05;;;;;;;;;14.20;12.40;;;;;49.15;18.45;101259.00;5075459;28;45769;-40
2023/09/08 09:20:31;;;;;;;;;15.40;13.60;;;;;50.16;17.00;101257.13;5075904;28;46319;-40
2023/09/08 09:22:57;;;;;;;;;12.75;11.75;;;;;51.08;15.66;101252.44;5076439;28;45862;-39
2023/09/08 09:25:24;;;;;;;;;15.50;15.25;;;;;52.10;15.41;101247.25;5076321;28;45806;-60
2023/09/08 09:27:55;;;;;;;;;14.40;14.40;;;;;52.87;15.03;101251.66;5076857;28;45859;-59
2023/09/08 09:30:21;;;;;;;;;16.60;13.60;;;;;53.76;13.51;101250.34;5076360;28;46434;-59
2023/09/08 09:32:49;;;;;;;;;12.20;11.00;;;;;54.53;15.09;101245.72;5076092;28;45568;-59
2023/09/08 09:35:15;;;;;;;;;13.60;11.00;;;;;54.90;14.01;101247.38;5076682;28;45521;-61
2023/09/08 09:37:41;;;;;;;;;13.75;11.00;;;;;55.66;12.13;101244.38;5076817;28;45260;-57
2023/09/08 09:40:10;;;;;;;;;12.80;12.80;;;;;56.42;12.07;101240.31;5076219;28;46079;-57
2023/09/08 09:42:38;;;;;;;;;14.40;13.20;;;;;57.20;11.93;101237.94;5075728;28;45343;-40
2023/09/08 09:45:04;;;;;;;;;14.00;12.20;;;;;57.63;11.46;101230.03;5076186;28;45342;-42
2023/09/08 09:47:30;;;;;;;;;13.40;11.80;;;;;58.05;11.09;101235.50;5076648;28;45492;-42
2023/09/08 09:49:58;;;;;;;;;15.00;12.00;;;;;58.34;12.08;101236.06;5076131;28;46331;-46
2023/09/08 09:52:25;;;;;;;;;14.80;11.00;;;;;58.79;10.54;101234.75;5075656;28;45403;-52
2023/09/08 09:54:54;;;;;;;;;9.60;9.60;;;;;58.99;11.00;101231.50;5075975;28;45473;-46
2023/09/08 09:57:21;;;;;;;;;10.80;10.80;;;;;59.32;10.20;101219.53;5076254;28;45336;-46
2023/09/08 09:59:50;;;;;;;;;13.20;11.00;;;;;59.48;10.15;101224.22;5075815;28;46095;-46
2023/09/08 10:02:16;;;;;;;;;14.40;13.20;;;;;59.66;10.62;101229.97;5076172;28;45458;-41
2023/09/08 10:04:42;;;;;;;;;12.60;12.40;;;;;59.78;10.55;101217.56;5076060;28;45343;-39
2023/09/08 10:07:08;;;;;;;;;12.60;12.60;;;;;60.30;10.26;101215.63;5076138;28;45403;-40
2023/09/08 10:09:36;;;;;;;;;10.80;10.80;;;;;60.34;11.17;101219.13;5075853;28;46351;-40
2023/09/08 10:12:04;;;;;;;;;15.20;13.40;;;;;60.35;9.01;101223.63;5075473;28;45330;-44
2023/09/08 10:14:34;;;;;;;;;11.40;8.40;;;;;60.38;9.62;101216.09;5075993;28;45292;-45
2023/09/08 10:17:01;;;;;;;;;12.40;11.20;;;;;60.26;9.26;101220.72;5057682;28;45685;-42
2023/09/08 10:19:27;;;;;;;;;11.20;11.20;;;;;60.69;10.09;101223.66;5056603;28;46759;-42
2023/09/08 10:21:57;;;;;;;;;11.75;11.25;;;;;60.79;9.34;101202.22;5075642;28;45373;-43
2023/09/08 10:24:29;;;;;;;;;13.40;11.40;;;;;61.19;9.12;101216.28;5075410;28;45697;-54
2023/09/08 10:27:08;;;;;;;;;11.80;10.40;;;;;61.02;10.09;101226.56;5075543;28;45766;-40
2023/09/08 10:29:34;;;;;;;;;11.80;10.00;;;;;60.83;8.96;101212.28;5074653;28;46587;-44
2023/09/08 10:32:00;;;;;;;;;14.60;11.60;;;;;61.04;9.70;101218.28;5075359;28;45756;-44
2023/09/08 10:34:27;;;;;;;;;13.40;11.40;;;;;60.96;9.67;101214.94;5075540;28;45255;-45
2023/09/08 10:36:53;;;;;;;;;10.60;9.20;;;;;61.10;9.01;101207.66;5075827;28;45335;-40
2023/09/08 10:39:31;;;;;;;;;10.50;10.50;;;;;61.35;9.44;101210.09;5075326;28;45405;-45
2023/09/08 10:42:21;;;;;;;;;11.80;10.80;;;;;61.18;9.42;101206.06;5075312;28;45410;-43
2023/09/08 10:44:49;;;;;;;;;12.80;11.00;;;;;61.35;9.37;101215.84;5052798;28;45423;-49
2023/09/08 10:47:19;;;;;;;;;11.60;11.20;;;;;61.48;9.47;101209.88;5053104;28;45479;-39
2023/09/08 10:49:45;;;;;;;;;13.00;11.20;;;;;61.63;9.81;101207.03;5052262;28;46194;-40
2023/09/08 10:52:12;;;;;;;;;12.60;12.60;;;;;61.44;9.31;101205.56;5052024;28;45502;-40
2023/09/08 10:54:42;;;;;;;;;15.20;12.40;;;;;61.56;8.46;101207.41;5055668;28;45357;-40
2023/09/08 10:57:13;;;;;;;;;16.40;15.00;;;;;61.12;9.72;101196.50;5056756;28;45908;-42
2023/09/08 10:59:40;;;;;;;;;12.80;12.60;;;;;61.34;9.37;101176.84;5056134;28;47372;-42
2023/09/08 11:02:05;;;;;;;;;10.60;10.60;;;;;61.66;8.93;101196.59;5056349;28;45811;-41
2023/09/08 11:04:32;;;;;;;;;10.00;10.00;;;;;61.72;9.54;101189.69;5056495;28;45355;-43